createdAt,value
2022-08-09T00:00:04.316Z,49.70
2022-08-09T00:02:34.541Z,49.33
2022-08-09T00:06:16.262Z,49.86
2022-08-09T00:07:49.862Z,49.47
2022-08-09T00:10:24.655Z,50.82
2022-08-09T00:12:53.127Z,49.98
2022-08-09T00:15:35.286Z,49.76
2022-08-09T00:18:11.899Z,49.97
2022-08-09T00:20:50.179Z,49.58
2022-08-09T00:23:54.792Z,49.84
2022-08-09T00:26:07.963Z,50.20
2022-08-09T00:28:35.388Z,50.35
2022-08-09T00:31:09.158Z,50.16
2022-08-09T00:33:54.689Z,50.06
2022-08-09T00:36:29.658Z,50.04
2022-08-09T00:38:58.966Z,49.73
2022-08-09T00:44:19.390Z,49.79
2022-08-09T00:44:27.383Z,49.89
2022-08-09T00:47:04.900Z,51.21
2022-08-09T00:49:36.758Z,51.53
2022-08-09T00:52:15.954Z,51.54
2022-08-09T00:54:46.264Z,50.88
2022-08-09T00:57:13.877Z,51.13
2022-08-09T00:59:52.877Z,50.81
2022-08-09T01:02:28.529Z,51.15
2022-08-09T01:05:22.479Z,52.38
2022-08-09T01:08:54.931Z,52.06
2022-08-09T01:12:04.267Z,51.88
2022-08-09T01:14:52.631Z,51.75
2022-08-09T01:17:20.775Z,50.80
2022-08-09T01:20:29.211Z,51.21
2022-08-09T01:23:12.323Z,51.42
2022-08-09T01:26:14.288Z,51.17
2022-08-09T01:28:46.036Z,50.80
2022-08-09T01:32:28.199Z,50.93
2022-08-09T01:34:08.929Z,52.04
2022-08-09T01:36:39.332Z,51.21
2022-08-09T01:39:07.190Z,52.21
2022-08-09T01:41:36.763Z,52.38
2022-08-09T01:44:25.302Z,52.49
2022-08-09T01:46:53.524Z,52.00
2022-08-09T01:49:24.113Z,51.87
2022-08-09T01:51:56.439Z,52.46
2022-08-09T01:54:35.710Z,53.00
2022-08-09T01:57:17.629Z,52.39
2022-08-09T01:59:52.663Z,52.87
2022-08-09T02:02:30.962Z,52.90
2022-08-09T02:05:05.676Z,52.12
2022-08-09T02:08:39.346Z,52.36
2022-08-09T02:10:51.738Z,52.80
2022-08-09T02:13:26.051Z,53.92
2022-08-09T02:16:07.363Z,54.28
2022-08-09T02:18:38.127Z,54.69
2022-08-09T02:21:17.227Z,54.34
2022-08-09T02:24:00.107Z,55.76
2022-08-09T02:26:33.747Z,55.86
2022-08-09T02:29:11.310Z,55.77
2022-08-09T02:31:43.501Z,55.45
2022-08-09T02:34:38.680Z,55.95
2022-08-09T02:37:14.889Z,55.56
2022-08-09T02:40:09.435Z,56.00
2022-08-09T02:42:43.092Z,54.93
2022-08-09T02:45:34.324Z,55.61
2022-08-09T02:48:19.384Z,55.14
2022-08-09T02:50:57.186Z,54.33
2022-08-09T02:53:34.325Z,55.66
2022-08-09T02:56:03.593Z,55.32
2022-08-09T02:58:36.775Z,56.39
2022-08-09T03:01:08.254Z,56.22
2022-08-09T03:04:17.258Z,56.97
2022-08-09T03:06:29.010Z,56.97
2022-08-09T03:08:57.825Z,57.23
2022-08-09T03:12:04.501Z,57.48
2022-08-09T03:14:16.577Z,56.83
2022-08-09T03:16:47.397Z,56.49
2022-08-09T03:19:58.854Z,56.38
2022-08-09T03:22:12.113Z,56.38
2022-08-09T03:25:25.723Z,56.05
2022-08-09T03:27:49.372Z,56.11
2022-08-09T03:30:23.624Z,56.02
2022-08-09T03:33:16.744Z,56.00
2022-08-09T03:36:13.414Z,56.01
2022-08-09T03:38:43.154Z,55.67
2022-08-09T03:41:18.456Z,55.63
2022-08-09T03:43:51.667Z,55.64
2022-08-09T03:46:37.655Z,54.93
2022-08-09T03:49:08.074Z,55.02
2022-08-09T03:51:55.888Z,55.42
2022-08-09T03:54:34.581Z,55.38
2022-08-09T03:57:17.881Z,55.02
2022-08-09T03:59:54.995Z,54.61
2022-08-09T04:02:28.001Z,54.23
2022-08-09T04:05:05.794Z,55.50
2022-08-09T04:07:53.214Z,55.02
2022-08-09T04:10:29.555Z,54.91
2022-08-09T04:13:03.733Z,56.44
2022-08-09T04:15:52.460Z,55.42
2022-08-09T04:18:21.206Z,54.61
2022-08-09T04:20:51.332Z,54.81
2022-08-09T04:23:24.355Z,54.93
2022-08-09T04:25:53.220Z,56.35
2022-08-09T04:28:34.559Z,56.07
2022-08-09T04:31:09.728Z,56.12
2022-08-09T04:33:53.019Z,55.14
2022-08-09T04:36:28.186Z,55.31
2022-08-09T04:38:59.306Z,54.56
2022-08-09T04:41:32.374Z,55.90
2022-08-09T04:44:07.253Z,56.29
2022-08-09T04:46:59.647Z,56.82
2022-08-09T04:49:52.196Z,57.42
2022-08-09T04:52:26.498Z,57.74
2022-08-09T04:54:57.224Z,57.06
2022-08-09T04:57:25.396Z,56.63
2022-08-09T04:59:54.241Z,55.19
2022-08-09T05:02:23.619Z,56.87
2022-08-09T05:04:55.188Z,55.98
2022-08-09T05:07:24.397Z,55.35
2022-08-09T05:09:51.621Z,55.50
2022-08-09T05:12:19.058Z,55.33
2022-08-09T05:14:49.739Z,55.60
2022-08-09T05:18:39.622Z,55.56
2022-08-09T05:20:05.489Z,55.57
2022-08-09T05:22:36.243Z,55.23
2022-08-09T05:25:24.828Z,55.98
2022-08-09T05:27:55.546Z,55.83
2022-08-09T05:30:22.691Z,56.22
2022-08-09T05:32:51.143Z,56.07
2022-08-09T05:35:22.040Z,56.29
2022-08-09T05:37:51.133Z,56.11
2022-08-09T05:40:18.823Z,56.49
2022-08-09T05:42:47.043Z,55.71
2022-08-09T05:45:14.484Z,55.34
2022-08-09T05:47:45.617Z,55.10
2022-08-09T05:50:36.162Z,54.80
2022-08-09T05:53:25.010Z,53.57
2022-08-09T05:55:59.028Z,53.64
2022-08-09T05:58:26.755Z,54.04
2022-08-09T06:00:54.069Z,54.10
2022-08-09T06:03:21.246Z,54.33
2022-08-09T06:06:02.719Z,53.35
2022-08-09T06:08:33.966Z,52.73
2022-08-09T06:11:01.359Z,52.84
2022-08-09T06:13:44.201Z,52.48
2022-08-09T06:16:13.082Z,53.28
2022-08-09T06:18:40.286Z,53.74
2022-08-09T06:21:08.239Z,53.24
2022-08-09T06:23:58.857Z,52.95
2022-08-09T06:26:28.278Z,51.45
2022-08-09T06:29:04.709Z,50.95
2022-08-09T06:31:40.187Z,50.56
2022-08-09T06:34:22.779Z,50.85
2022-08-09T06:36:59.026Z,51.23
2022-08-09T06:39:48.853Z,50.64
2022-08-09T06:42:24.904Z,49.62
2022-08-09T06:44:55.469Z,49.56
2022-08-09T06:47:25.028Z,48.67
2022-08-09T06:50:13.757Z,46.69
2022-08-09T06:52:46.999Z,45.46
2022-08-09T06:55:22.505Z,45.59
2022-08-09T06:58:03.034Z,45.76
2022-08-09T07:00:56.901Z,45.51
2022-08-09T07:03:28.060Z,46.01
2022-08-09T07:06:03.641Z,45.36
2022-08-09T07:08:33.862Z,44.13
2022-08-09T07:11:03.411Z,44.34
2022-08-09T07:14:00.242Z,44.20
2022-08-09T07:16:41.165Z,43.94
2022-08-09T07:19:06.177Z,43.02
2022-08-09T07:21:34.958Z,41.73
2022-08-09T07:24:05.075Z,41.14
2022-08-09T07:26:32.628Z,40.93
2022-08-09T07:29:11.807Z,40.66
2022-08-09T07:31:45.399Z,39.74
2022-08-09T07:34:20.726Z,39.07
2022-08-09T07:36:49.621Z,37.92
2022-08-09T07:39:20.177Z,37.38
2022-08-09T07:42:06.273Z,37.32
2022-08-09T07:44:52.390Z,36.28
2022-08-09T07:47:23.239Z,35.73
2022-08-09T07:50:05.145Z,35.14
2022-08-09T07:52:36.690Z,34.44
2022-08-09T07:55:09.966Z,36.43
2022-08-09T07:57:46.895Z,34.85
2022-08-09T08:00:20.844Z,35.50
2022-08-09T08:03:08.700Z,34.09
2022-08-09T08:05:53.565Z,32.97
2022-08-09T08:09:02.325Z,32.71
2022-08-09T08:12:09.004Z,32.57
2022-08-09T08:14:04.717Z,31.82
2022-08-09T08:16:34.532Z,30.10
2022-08-09T08:19:03.224Z,30.76
2022-08-09T08:21:31.808Z,29.56
2022-08-09T08:24:01.237Z,30.56
2022-08-09T08:26:54.660Z,31.51
2022-08-09T08:29:27.378Z,30.89
2022-08-09T08:32:04.302Z,29.69
2022-08-09T08:34:36.102Z,30.85
2022-08-09T08:37:05.295Z,32.94
2022-08-09T08:39:39.697Z,34.18
2022-08-09T08:42:12.535Z,35.38
2022-08-09T08:44:42.891Z,34.06
2022-08-09T08:47:13.465Z,35.42
2022-08-09T08:49:48.358Z,35.56
2022-08-09T08:55:06.729Z,35.96
2022-08-09T08:57:35.176Z,34.88
2022-08-09T09:00:12.600Z,32.42
2022-08-09T09:02:46.902Z,32.12
2022-08-09T09:05:57.534Z,31.19
2022-08-09T09:08:29.894Z,29.92
2022-08-09T09:11:05.692Z,32.07
2022-08-09T09:13:55.561Z,28.45
2022-08-09T09:16:35.739Z,29.74
2022-08-09T09:22:34.226Z,30.74
2022-08-09T09:26:02.486Z,29.84
2022-08-09T09:28:06.483Z,31.73
2022-08-09T09:30:53.343Z,33.00
2022-08-09T09:33:20.654Z,31.08
2022-08-09T09:36:19.913Z,31.02
2022-08-09T09:38:58.236Z,30.15
2022-08-09T09:41:33.034Z,29.36
2022-08-09T09:44:12.148Z,29.76
2022-08-09T09:46:51.969Z,29.93
2022-08-09T09:49:56.417Z,29.77
2022-08-09T09:52:16.640Z,27.64
2022-08-09T09:55:23.877Z,26.34
2022-08-09T09:58:03.254Z,26.79
2022-08-09T10:00:59.710Z,28.17
2022-08-09T10:03:56.455Z,26.77
2022-08-09T10:06:32.534Z,25.06
2022-08-09T10:09:21.600Z,25.42
2022-08-09T10:12:14.302Z,23.76
2022-08-09T10:14:50.051Z,24.88
2022-08-09T10:17:39.498Z,24.68
2022-08-09T10:20:27.111Z,23.89
2022-08-09T10:23:23.744Z,24.06
2022-08-09T10:26:06.034Z,23.08
2022-08-09T10:28:38.265Z,22.01
2022-08-09T10:34:11.161Z,23.27
2022-08-09T10:36:42.910Z,23.60
2022-08-09T10:39:15.723Z,22.29
2022-08-09T10:41:47.598Z,22.38
2022-08-09T10:44:23.131Z,21.70
2022-08-09T10:48:20.280Z,21.75
2022-08-09T10:50:49.466Z,20.43
2022-08-09T10:53:46.925Z,19.15
2022-08-09T10:56:33.693Z,19.64
2022-08-09T10:59:43.171Z,20.02
2022-08-09T11:03:07.354Z,22.35
2022-08-09T11:05:30.183Z,22.85
2022-08-09T11:08:47.458Z,23.43
2022-08-09T11:11:19.674Z,23.69
2022-08-09T11:13:53.677Z,24.00
2022-08-09T11:16:39.337Z,25.04
2022-08-09T11:19:10.649Z,26.31
2022-08-09T11:21:55.203Z,26.12
2022-08-09T11:24:57.973Z,24.94
2022-08-09T11:28:02.490Z,23.71
2022-08-09T11:30:33.322Z,22.71
2022-08-09T11:33:19.296Z,22.30
2022-08-09T11:35:58.647Z,22.22
2022-08-09T11:38:41.167Z,23.28
2022-08-09T11:41:13.127Z,22.96
2022-08-09T11:43:49.340Z,22.24
2022-08-09T11:46:32.803Z,22.01
2022-08-09T11:49:05.298Z,21.55
2022-08-09T11:53:04.053Z,21.37
2022-08-09T11:55:51.666Z,21.14
2022-08-09T11:58:32.709Z,21.76
2022-08-09T12:01:15.685Z,23.54
2022-08-09T12:04:03.460Z,24.64
2022-08-09T12:06:35.236Z,23.65
2022-08-09T12:09:19.695Z,23.50
2022-08-09T12:12:03.598Z,23.60
2022-08-09T12:14:36.840Z,24.10
2022-08-09T12:17:28.178Z,24.97
2022-08-09T12:20:00.781Z,26.89
2022-08-09T12:22:29.210Z,27.60
2022-08-09T12:25:37.006Z,26.40
2022-08-09T12:29:15.412Z,26.96
2022-08-09T12:31:31.059Z,27.89
2022-08-09T12:34:14.253Z,28.97
2022-08-09T12:37:09.491Z,28.43
2022-08-09T12:39:58.288Z,28.11
2022-08-09T12:42:25.799Z,28.22
2022-08-09T12:44:54.608Z,26.90
2022-08-09T12:47:23.232Z,26.95
2022-08-09T12:50:09.105Z,26.34
2022-08-09T12:53:17.660Z,26.73
2022-08-09T12:56:14.702Z,26.52
2022-08-09T12:58:27.241Z,26.53
2022-08-09T13:00:56.254Z,25.43
2022-08-09T13:03:53.860Z,25.76
2022-08-09T13:06:46.453Z,27.19
2022-08-09T13:09:24.227Z,27.53
2022-08-09T13:12:02.193Z,27.08
2022-08-09T13:14:41.765Z,27.30
2022-08-09T13:17:44.104Z,27.45
2022-08-09T13:20:14.028Z,28.65
2022-08-09T13:23:06.113Z,28.51
2022-08-09T13:25:54.396Z,28.49
2022-08-09T13:28:34.005Z,30.33
2022-08-09T13:32:17.962Z,35.32
2022-08-09T13:33:59.230Z,36.66
2022-08-09T13:36:40.537Z,37.17
2022-08-09T13:41:45.638Z,36.47
2022-08-09T13:42:05.029Z,38.39
2022-08-09T13:44:33.729Z,38.09
2022-08-09T13:47:27.405Z,38.68
2022-08-09T13:49:57.521Z,36.98
2022-08-09T13:52:30.430Z,38.36
2022-08-09T13:55:00.843Z,38.83
2022-08-09T13:57:40.806Z,40.31
2022-08-09T14:00:18.807Z,45.94
2022-08-09T14:03:04.081Z,47.88
2022-08-09T14:05:57.321Z,50.21
2022-08-09T14:08:26.853Z,60.55
2022-08-09T14:10:56.154Z,60.22
2022-08-09T14:14:14.991Z,61.74
2022-08-09T14:16:28.145Z,59.58
2022-08-09T14:18:58.151Z,64.92
2022-08-09T14:21:29.241Z,71.83
2022-08-09T14:24:01.437Z,71.95
2022-08-09T14:26:38.049Z,68.15
2022-08-09T14:29:25.848Z,69.74
2022-08-09T14:31:56.636Z,68.78
2022-08-09T14:34:31.165Z,70.31
2022-08-09T14:37:06.462Z,79.97
2022-08-09T14:39:47.972Z,68.55
2022-08-09T14:42:40.504Z,69.37
2022-08-09T14:46:54.647Z,70.66
2022-08-09T14:48:09.422Z,70.43
2022-08-09T14:50:37.632Z,75.04
2022-08-09T14:53:12.230Z,68.84
2022-08-09T14:55:49.970Z,79.47
2022-08-09T14:58:18.599Z,74.26
2022-08-09T15:00:48.539Z,87.01
2022-08-09T15:03:20.237Z,76.86
2022-08-09T15:05:52.537Z,75.74
2022-08-09T15:08:24.574Z,76.29
2022-08-09T15:11:00.662Z,72.35
2022-08-09T15:13:48.623Z,72.66
2022-08-09T15:16:20.021Z,74.80
2022-08-09T15:18:49.432Z,72.29
2022-08-09T15:21:54.650Z,72.68
2022-08-09T15:24:13.087Z,67.70
2022-08-09T15:26:46.318Z,66.95
2022-08-09T15:30:55.937Z,66.28
2022-08-09T15:32:01.862Z,65.89
2022-08-09T15:34:34.018Z,66.49
2022-08-09T15:37:04.119Z,65.98
2022-08-09T15:39:34.490Z,65.49
2022-08-09T15:42:02.636Z,65.54
2022-08-09T15:44:32.645Z,63.63
2022-08-09T15:47:00.875Z,62.44
2022-08-09T15:49:28.576Z,65.63
2022-08-09T15:52:03.147Z,63.71
2022-08-09T15:54:48.983Z,62.16
2022-08-09T15:57:34.694Z,60.66
2022-08-09T16:00:25.538Z,60.51
2022-08-09T16:02:56.188Z,62.38
2022-08-09T16:05:47.477Z,59.73
2022-08-09T16:08:30.139Z,60.43
2022-08-09T16:11:03.110Z,58.46
2022-08-09T16:14:05.595Z,61.41
2022-08-09T16:16:19.821Z,57.31
2022-08-09T16:18:48.149Z,59.39
2022-08-09T16:21:17.206Z,60.33
2022-08-09T16:23:55.646Z,57.13
2022-08-09T16:26:34.117Z,57.70
2022-08-09T16:29:21.062Z,57.09
2022-08-09T16:32:17.779Z,57.67
2022-08-09T16:34:56.916Z,61.51
2022-08-09T16:37:55.413Z,62.46
2022-08-09T16:40:20.500Z,59.06
2022-08-09T16:42:58.411Z,57.82
2022-08-09T16:45:27.164Z,55.72
2022-08-09T16:48:42.958Z,55.48
2022-08-09T16:50:58.880Z,56.09
2022-08-09T16:53:32.594Z,58.66
2022-08-09T16:56:07.662Z,61.67
2022-08-09T16:58:49.686Z,60.65
2022-08-09T17:01:19.524Z,59.83
2022-08-09T17:03:52.656Z,61.29
2022-08-09T17:06:31.645Z,63.04
2022-08-09T17:09:16.194Z,64.18
2022-08-09T17:12:17.242Z,60.21
2022-08-09T17:14:47.795Z,65.63
2022-08-09T17:17:27.104Z,64.87
2022-08-09T17:20:28.586Z,64.44
2022-08-09T17:22:51.956Z,65.03
2022-08-09T17:25:22.054Z,66.00
2022-08-09T17:27:54.041Z,65.24
2022-08-09T17:30:47.546Z,63.87
2022-08-09T17:33:22.697Z,64.68
2022-08-09T17:35:50.596Z,64.92
2022-08-09T17:38:30.584Z,65.12
2022-08-09T17:41:02.211Z,65.80
2022-08-09T17:43:33.679Z,66.43
2022-08-09T17:46:08.671Z,65.53
2022-08-09T17:48:52.106Z,65.89
2022-08-09T17:51:21.884Z,67.10
2022-08-09T17:53:53.525Z,64.76
2022-08-09T17:56:28.831Z,65.68
2022-08-09T17:59:09.083Z,64.88
2022-08-09T18:01:40.950Z,65.25
2022-08-09T18:04:27.754Z,66.42
2022-08-09T18:06:55.863Z,65.17
2022-08-09T18:09:41.169Z,65.12
2022-08-09T18:12:40.862Z,65.79
2022-08-09T18:15:02.079Z,64.57
2022-08-09T18:18:03.795Z,65.61
2022-08-09T18:20:55.000Z,67.00
2022-08-09T18:23:06.994Z,66.75
2022-08-09T18:25:53.574Z,66.28
2022-08-09T18:30:35.698Z,66.83
2022-08-09T18:31:14.715Z,66.53
2022-08-09T18:33:53.071Z,67.19
2022-08-09T18:36:25.779Z,66.43
2022-08-09T18:39:16.076Z,66.53
2022-08-09T18:41:52.912Z,66.79
2022-08-09T18:44:23.021Z,66.74
2022-08-09T18:47:08.274Z,67.26
2022-08-09T18:49:46.145Z,67.58
2022-08-09T18:52:18.614Z,67.45
2022-08-09T18:54:53.377Z,67.13
2022-08-09T18:57:22.969Z,67.33
2022-08-09T18:59:55.626Z,66.90
2022-08-09T19:02:30.880Z,67.02
2022-08-09T19:05:15.277Z,66.43
2022-08-09T19:08:04.516Z,67.64
2022-08-09T19:10:37.542Z,67.46
2022-08-09T19:13:22.503Z,68.65
2022-08-09T19:15:55.685Z,67.56
2022-08-09T19:18:36.440Z,69.41
2022-08-09T19:21:10.561Z,68.50
2022-08-09T19:24:32.674Z,68.25
2022-08-09T19:26:35.148Z,67.66
2022-08-09T19:29:15.044Z,67.88
2022-08-09T19:31:46.386Z,67.26
2022-08-09T19:34:22.258Z,68.08
2022-08-09T19:36:55.802Z,68.19
2022-08-09T19:39:43.930Z,67.70
2022-08-09T19:42:14.629Z,68.40
2022-08-09T19:44:50.676Z,67.93
2022-08-09T19:47:23.314Z,67.42
2022-08-09T19:50:07.316Z,68.43
2022-08-09T19:52:51.704Z,67.88
2022-08-09T19:55:30.915Z,68.05
2022-08-09T19:58:16.468Z,66.61
2022-08-09T20:00:45.569Z,67.64
2022-08-09T20:04:08.401Z,68.07
2022-08-09T20:06:03.324Z,66.87
2022-08-09T20:08:35.142Z,67.42
2022-08-09T20:11:04.744Z,65.91
2022-08-09T20:13:36.811Z,67.61
2022-08-09T20:16:35.537Z,66.29
2022-08-09T20:19:48.352Z,66.13
2022-08-09T20:21:56.628Z,66.42
2022-08-09T20:24:32.120Z,67.93
2022-08-09T20:27:08.404Z,67.56
2022-08-09T20:29:39.844Z,67.84
2022-08-09T20:32:28.687Z,67.92
2022-08-09T20:35:01.449Z,68.63
2022-08-09T20:37:37.079Z,68.36
2022-08-09T20:40:27.191Z,67.35
2022-08-09T20:43:12.275Z,67.44
2022-08-09T20:46:00.651Z,67.84
2022-08-09T20:48:33.489Z,68.27
2022-08-09T20:51:01.435Z,67.54
2022-08-09T20:53:36.518Z,66.76
2022-08-09T20:56:20.728Z,66.58
2022-08-09T20:58:57.825Z,66.74
2022-08-09T21:01:50.379Z,66.15
2022-08-09T21:05:54.123Z,67.27
2022-08-09T21:07:12.375Z,67.30
2022-08-09T21:09:56.083Z,66.69
2022-08-09T21:15:15.964Z,67.29
2022-08-09T21:18:23.586Z,67.25
2022-08-09T21:20:43.296Z,66.81
2022-08-09T21:23:15.535Z,67.69
2022-08-09T21:25:55.539Z,67.89
2022-08-09T21:28:34.491Z,66.97
2022-08-09T21:31:16.326Z,67.23
2022-08-09T21:33:52.448Z,67.17
2022-08-09T21:36:28.626Z,67.63
2022-08-09T21:38:59.428Z,68.01
2022-08-09T21:42:05.006Z,67.29
2022-08-09T21:44:33.482Z,66.83
2022-08-09T21:47:10.846Z,65.97
2022-08-09T21:49:45.512Z,67.21
2022-08-09T21:52:17.612Z,66.45
2022-08-09T21:55:03.512Z,66.50
2022-08-09T21:57:59.287Z,67.00
2022-08-09T22:00:33.584Z,66.59
2022-08-09T22:03:07.575Z,67.20
2022-08-09T22:05:46.271Z,67.42
2022-08-09T22:08:19.532Z,66.91
2022-08-09T22:11:50.099Z,67.47
2022-08-09T22:13:43.274Z,67.05
2022-08-09T22:16:12.033Z,67.03
2022-08-09T22:18:53.702Z,66.41
2022-08-09T22:21:27.245Z,66.89
2022-08-09T22:24:16.983Z,66.86
2022-08-09T22:26:51.421Z,67.21
2022-08-09T22:29:22.971Z,67.75
2022-08-09T22:31:57.400Z,67.32
2022-08-09T22:34:27.539Z,66.67
2022-08-09T22:36:57.025Z,66.45
2022-08-09T22:39:55.979Z,66.47
2022-08-09T22:42:16.243Z,66.89
2022-08-09T22:48:04.932Z,66.59
2022-08-09T22:48:15.793Z,66.64
2022-08-09T22:50:27.108Z,66.52
2022-08-09T22:52:57.717Z,67.29
2022-08-09T22:55:39.663Z,67.03
2022-08-09T22:58:20.299Z,67.40
2022-08-09T23:01:02.155Z,67.26
2022-08-09T23:04:03.652Z,66.32
2022-08-09T23:06:34.811Z,66.12
2022-08-09T23:09:07.150Z,66.12
2022-08-09T23:11:34.550Z,66.47
2022-08-09T23:14:03.438Z,66.62
2022-08-09T23:16:31.415Z,66.81
2022-08-09T23:18:58.630Z,66.50
2022-08-09T23:21:29.934Z,66.60
2022-08-09T23:24:06.627Z,67.51
2022-08-09T23:26:37.350Z,67.11
2022-08-09T23:29:11.545Z,67.08
2022-08-09T23:31:38.910Z,67.20
2022-08-09T23:34:06.267Z,67.24
2022-08-09T23:36:35.160Z,66.64
2022-08-09T23:39:06.452Z,66.91
2022-08-09T23:41:34.270Z,66.92
2022-08-09T23:44:02.861Z,66.89
2022-08-09T23:46:31.447Z,66.35
2022-08-09T23:48:59.785Z,66.31
2022-08-09T23:51:28.634Z,66.52
2022-08-09T23:54:02.146Z,66.88
2022-08-09T23:56:52.172Z,67.28
2022-08-09T23:59:20.772Z,68.18
